Time;durP1;ratioP1;P1;durP2;ratioP2;P2;SDS_P1;SDS_P2;PMS_P1;PMS_P2;Temp;Humidity;BMP_temperature;BMP_pressure;BME280_temperature;BME280_humidity;BME280_pressure;Samples;Min_cycle;Max_cycle;Signal;HPM_P1;HPM_P2
2022/10/19 00:01:16;;;;;;;2.83;1.05;;;11.50;99.90;;;;;;5068707;28;20831;-40
2022/10/19 00:03:43;;;;;;;3.47;0.93;;;11.50;99.90;;;;;;5069218;28;20028;-41
2022/10/19 00:06:28;;;;;;;1.92;0.88;;;11.50;99.90;;;;;;5066351;28;20020;-38
2022/10/19 00:08:58;;;;;;;1.65;0.85;;;11.50;99.90;;;;;;5068703;28;20224;-40
2022/10/19 00:11:24;;;;;;;2.70;1.00;;;11.40;99.90;;;;;;5066724;28;20039;-40
2022/10/19 00:13:51;;;;;;;4.05;1.05;;;11.40;99.90;;;;;;5070213;28;20025;-36
2022/10/19 00:16:17;;;;;;;3.35;0.98;;;11.40;99.90;;;;;;5064610;28;20024;-37
2022/10/19 00:18:44;;;;;;;2.17;0.80;;;11.40;99.90;;;;;;5073027;28;20035;-39
2022/10/19 00:21:12;;;;;;;3.30;0.90;;;11.40;99.90;;;;;;5063390;28;20073;-38
2022/10/19 00:23:40;;;;;;;3.67;1.08;;;11.40;99.90;;;;;;5074211;28;20025;-36
2022/10/19 00:26:06;;;;;;;3.65;1.08;;;11.40;99.90;;;;;;5063563;28;20024;-37
2022/10/19 00:28:31;;;;;;;6.72;1.15;;;11.30;99.90;;;;;;5074724;28;20078;-37
2022/10/19 00:31:02;;;;;;;4.00;0.80;;;11.30;99.90;;;;;;5063277;28;20922;-38
2022/10/19 00:33:28;;;;;;;7.63;1.58;;;11.30;99.90;;;;;;5074561;28;20471;-39
2022/10/19 00:35:56;;;;;;;3.05;1.08;;;11.30;99.90;;;;;;5063628;28;20058;-37
2022/10/19 00:38:22;;;;;;;2.90;0.93;;;11.30;99.90;;;;;;5075264;28;20711;-38
2022/10/19 00:40:48;;;;;;;4.55;1.10;;;11.40;99.90;;;;;;5062654;28;20016;-38
2022/10/19 00:43:25;;;;;;;5.07;1.10;;;11.30;99.90;;;;;;5073593;28;20028;-37
2022/10/19 00:45:51;;;;;;;4.35;1.00;;;11.30;99.90;;;;;;5063382;28;20577;-37
2022/10/19 00:48:26;;;;;;;2.60;1.00;;;11.30;99.90;;;;;;5075934;28;20119;-38
2022/10/19 00:50:57;;;;;;;3.38;0.98;;;11.30;99.90;;;;;;5082461;28;20036;-35
2022/10/19 00:53:26;;;;;;;2.10;1.03;;;11.30;99.90;;;;;;5076077;28;20036;-38
2022/10/19 00:55:52;;;;;;;3.17;0.95;;;11.30;99.90;;;;;;5083584;28;20949;-38
2022/10/19 00:58:17;;;;;;;4.72;1.00;;;11.30;99.90;;;;;;5078167;28;20028;-37
2022/10/19 01:00:43;;;;;;;2.88;0.90;;;11.30;99.90;;;;;;5082042;28;20027;-39
2022/10/19 01:03:10;;;;;;;3.25;1.10;;;11.20;99.90;;;;;;5080054;28;20031;-38
2022/10/19 01:05:37;;;;;;;2.35;0.80;;;11.20;99.90;;;;;;5080253;28;20115;-39
2022/10/19 01:08:03;;;;;;;2.65;0.85;;;11.20;99.90;;;;;;5083754;28;20106;-38
2022/10/19 01:11:00;;;;;;;3.25;1.05;;;11.20;99.90;;;;;;5075389;28;20036;-37
2022/10/19 01:13:44;;;;;;;7.30;1.00;;;11.20;99.90;;;;;;5071077;28;20035;-40
2022/10/19 01:16:35;;;;;;;2.00;0.60;;;11.20;99.90;;;;;;5080221;28;20264;-39
2022/10/19 01:19:21;;;;;;;4.28;0.80;;;11.20;99.90;;;;;;5071856;28;20050;-39
2022/10/19 01:21:59;;;;;;;1.63;0.80;;;11.10;99.90;;;;;;5085089;28;20028;-36
2022/10/19 01:24:42;;;;;;;3.80;1.00;;;11.10;99.90;;;;;;5074928;28;20028;-38
2022/10/19 01:27:51;;;;;;;3.85;0.90;;;11.10;99.90;;;;;;5085906;28;20032;-39
2022/10/19 01:30:43;;;;;;;1.25;0.70;;;11.00;99.90;;;;;;5071816;28;20052;-39
2022/10/19 01:33:24;;;;;;;2.50;0.90;;;11.00;99.90;;;;;;5086074;28;20120;-34
2022/10/19 01:36:08;;;;;;;3.30;0.80;;;10.90;99.90;;;;;;5076866;28;20028;-41
2022/10/19 01:38:52;;;;;;;3.88;0.90;;;10.90;99.90;;;;;;5066606;28;20061;-38
2022/10/19 01:41:33;;;;;;;2.47;0.93;;;10.90;99.90;;;;;;5076788;28;20041;-39
2022/10/19 01:44:43;;;;;;;2.78;0.90;;;10.90;99.90;;;;;;5066729;28;20059;-39
2022/10/19 01:47:32;;;;;;;3.40;0.90;;;10.80;99.90;;;;;;5024893;28;20040;-38
2022/10/19 01:50:04;;;;;;;2.88;1.17;;;10.70;99.90;;;;;;5067358;28;20090;-37
2022/10/19 01:52:32;;;;;;;3.85;1.20;;;10.70;99.90;;;;;;5064495;28;20028;-38
2022/10/19 01:55:00;;;;;;;3.72;1.00;;;10.70;99.90;;;;;;5074510;28;20953;-39
2022/10/19 01:57:32;;;;;;;2.85;1.00;;;10.60;99.90;;;;;;5078250;28;20059;-38
2022/10/19 01:59:57;;;;;;;4.75;0.98;;;10.50;99.90;;;;;;5080716;28;20032;-37
2022/10/19 02:02:27;;;;;;;6.57;1.10;;;10.50;99.90;;;;;;5077005;28;20312;-39
2022/10/19 02:04:55;;;;;;;3.13;1.35;;;10.50;99.90;;;;;;5082219;28;20026;-39
2022/10/19 02:07:23;;;;;;;4.25;1.00;;;10.40;99.90;;;;;;5074876;28;20020;-39
2022/10/19 02:09:49;;;;;;;3.35;1.00;;;10.40;99.90;;;;;;5083777;28;20024;-39
2022/10/19 02:12:16;;;;;;;3.38;1.10;;;10.30;99.90;;;;;;5072884;28;20055;-39
2022/10/19 02:14:49;;;;;;;2.55;0.98;;;10.30;99.90;;;;;;5083594;28;20745;-38
2022/10/19 02:17:19;;;;;;;1.25;0.90;;;10.20;99.90;;;;;;5073503;28;20067;-40
2022/10/19 02:19:45;;;;;;;2.72;1.00;;;10.20;99.90;;;;;;5085037;28;20165;-39
2022/10/19 02:22:11;;;;;;;3.40;1.13;;;10.20;99.90;;;;;;5072868;28;20520;-35
2022/10/19 02:24:37;;;;;;;3.78;1.20;;;10.10;99.90;;;;;;5085419;28;20499;-37
2022/10/19 02:27:05;;;;;;;2.42;0.80;;;10.10;99.90;;;;;;5072382;28;20046;-40
2022/10/19 02:29:35;;;;;;;3.72;0.90;;;10.10;99.90;;;;;;5085084;28;20035;-39
2022/10/19 02:32:01;;;;;;;3.38;0.90;;;10.10;99.90;;;;;;5052345;28;20095;-38
2022/10/19 02:34:27;;;;;;;2.55;0.80;;;10.10;99.90;;;;;;5063898;28;20063;-40
2022/10/19 02:36:59;;;;;;;4.13;0.93;;;10.00;99.90;;;;;;5053953;28;20037;-38
2022/10/19 02:39:25;;;;;;;1.95;1.17;;;10.00;99.90;;;;;;5062965;28;20031;-38
2022/10/19 02:42:00;;;;;;;2.63;0.98;;;10.00;99.90;;;;;;5055061;28;20025;-41
2022/10/19 02:44:31;;;;;;;2.45;1.13;;;9.90;99.90;;;;;;5061109;28;20032;-37
2022/10/19 02:47:11;;;;;;;2.05;0.77;;;9.90;99.90;;;;;;5055922;28;20576;-39
2022/10/19 02:49:38;;;;;;;2.28;0.70;;;9.90;99.90;;;;;;5059272;28;20076;-39
2022/10/19 02:52:08;;;;;;;3.97;0.90;;;9.90;99.90;;;;;;5052400;28;20052;-40
2022/10/19 02:54:36;;;;;;;5.35;1.10;;;9.90;99.90;;;;;;5048236;28;20483;-39
2022/10/19 02:57:07;;;;;;;1.95;0.60;;;9.80;99.90;;;;;;5049839;28;20020;-39
2022/10/19 02:59:32;;;;;;;4.03;1.00;;;9.80;99.90;;;;;;5050228;28;20419;-38
2022/10/19 03:02:00;;;;;;;1.95;0.80;;;9.70;99.90;;;;;;5046822;28;20024;-38
2022/10/19 03:04:26;;;;;;;2.17;0.60;;;9.70;99.90;;;;;;5051685;28;20444;-40
2022/10/19 03:06:52;;;;;;;2.35;0.70;;;9.70;99.90;;;;;;5045334;28;20143;-40
2022/10/19 03:09:17;;;;;;;4.18;0.80;;;9.70;99.90;;;;;;5053097;28;20798;-39
2022/10/19 03:11:43;;;;;;;3.25;0.90;;;9.60;99.90;;;;;;5045573;28;20083;-39
2022/10/19 03:14:08;;;;;;;2.50;1.05;;;9.60;99.90;;;;;;5054406;28;20021;-39
2022/10/19 03:16:34;;;;;;;1.25;0.73;;;9.60;99.90;;;;;;5043453;28;20106;-39
2022/10/19 03:19:06;;;;;;;3.03;1.10;;;9.70;99.90;;;;;;5056448;28;20032;-36
2022/10/19 03:21:33;;;;;;;2.53;1.05;;;9.70;99.90;;;;;;5044033;28;20044;-39
2022/10/19 03:23:59;;;;;;;4.07;1.10;;;9.80;99.90;;;;;;5055848;28;20028;-41
2022/10/19 03:26:25;;;;;;;5.88;1.15;;;9.80;99.90;;;;;;5043384;28;20036;-40
2022/10/19 03:28:51;;;;;;;4.20;1.25;;;9.80;99.90;;;;;;5055394;28;20577;-38
2022/10/19 03:31:17;;;;;;;4.05;1.50;;;9.90;99.90;;;;;;5057598;28;20175;-40
2022/10/19 03:33:42;;;;;;;3.80;1.40;;;9.90;99.90;;;;;;5073599;28;20028;-40
2022/10/19 03:36:15;;;;;;;3.42;1.17;;;9.90;99.90;;;;;;5065071;28;20055;-37
2022/10/19 03:38:41;;;;;;;;;;;10.00;99.90;;;;;;5071377;28;20055;-40
2022/10/19 03:41:09;;;;;;;2.25;1.20;;;10.00;99.90;;;;;;5067532;28;19958;-39
2022/10/19 03:43:35;;;;;;;2.78;1.20;;;10.00;99.90;;;;;;5068189;28;20028;-36
2022/10/19 03:46:00;;;;;;;2.72;1.20;;;10.00;99.90;;;;;;5070419;28;20110;-35
2022/10/19 03:48:26;;;;;;;6.38;1.42;;;10.00;99.90;;;;;;5065647;28;20074;-36
2022/10/19 03:51:07;;;;;;;2.42;1.10;;;10.00;99.90;;;;;;5081807;28;20439;-37
2022/10/19 03:53:33;;;;;;;3.78;1.23;;;10.00;99.90;;;;;;5080923;28;20052;-40
2022/10/19 03:56:08;;;;;;;2.20;1.15;;;10.00;99.90;;;;;;5073950;28;20110;-38
2022/10/19 03:58:36;;;;;;;2.53;1.10;;;10.00;99.90;;;;;;5081279;28;20906;-39
2022/10/19 04:01:07;;;;;;;5.43;1.63;;;10.00;99.90;;;;;;5083827;28;20127;-38
2022/10/19 04:03:33;;;;;;;3.25;1.20;;;10.00;99.90;;;;;;5081772;28;20027;-39
2022/10/19 04:06:04;;;;;;;3.13;1.42;;;9.90;99.90;;;;;;5071449;28;20024;-40
2022/10/19 04:08:30;;;;;;;1.88;1.00;;;9.90;99.90;;;;;;5081033;28;20546;-41
2022/10/19 04:11:07;;;;;;;6.63;1.30;;;9.90;99.90;;;;;;5071683;28;20036;-40
2022/10/19 04:13:33;;;;;;;4.50;1.48;;;9.80;99.90;;;;;;5082528;28;20028;-39
2022/10/19 04:15:59;;;;;;;2.38;1.40;;;9.80;99.90;;;;;;5071201;28;20334;-39
2022/10/19 04:18:25;;;;;;;2.53;1.25;;;9.70;99.90;;;;;;5082469;28;20035;-39
2022/10/19 04:20:58;;;;;;;3.58;1.58;;;9.70;99.90;;;;;;5070603;28;20349;-38
2022/10/19 04:23:26;;;;;;;3.97;1.58;;;9.70;99.90;;;;;;5087276;28;20024;-38
2022/10/19 04:25:58;;;;;;;4.38;1.50;;;9.60;99.90;;;;;;5074061;28;20108;-40
2022/10/19 04:28:24;;;;;;;2.95;1.65;;;9.60;99.90;;;;;;5086895;28;20043;-36
2022/10/19 04:30:49;;;;;;;4.97;1.20;;;9.60;99.90;;;;;;5075283;28;20068;-37
2022/10/19 04:33:15;;;;;;;1.88;1.15;;;9.50;99.90;;;;;;5085362;28;20020;-40
2022/10/19 04:35:40;;;;;;;4.63;1.40;;;9.50;99.90;;;;;;5078090;28;20055;-36
2022/10/19 04:38:06;;;;;;;3.45;1.25;;;9.50;99.90;;;;;;5083418;28;20115;-41
2022/10/19 04:40:36;;;;;;;2.25;1.00;;;9.40;99.90;;;;;;5079452;28;20028;-36
2022/10/19 04:43:02;;;;;;;2.55;1.20;;;9.40;99.90;;;;;;5080984;28;20028;-39
2022/10/19 04:45:28;;;;;;;2.63;1.20;;;9.40;99.90;;;;;;5081799;28;20507;-40
2022/10/19 04:47:56;;;;;;;5.78;1.35;;;9.40;99.90;;;;;;5077891;28;20028;-39
2022/10/19 04:50:23;;;;;;;3.80;1.10;;;9.40;99.90;;;;;;5082589;28;20504;-37
2022/10/19 04:52:48;;;;;;;1.65;1.00;;;9.30;99.90;;;;;;5076121;28;20099;-38
2022/10/19 04:55:14;;;;;;;3.20;1.10;;;9.30;99.90;;;;;;5084192;28;20023;-38
2022/10/19 04:57:39;;;;;;;4.20;1.10;;;9.30;99.90;;;;;;5075437;28;20023;-40
2022/10/19 05:00:05;;;;;;;1.85;1.10;;;9.20;99.90;;;;;;5086193;28;20024;-35
2022/10/19 05:02:31;;;;;;;1.98;1.17;;;9.20;99.90;;;;;;5073635;28;20056;-36
2022/10/19 05:04:57;;;;;;;2.65;1.23;;;9.20;99.90;;;;;;5086984;28;20892;-37
2022/10/19 05:07:22;;;;;;;3.25;1.20;;;9.10;99.90;;;;;;5072780;28;20495;-39
2022/10/19 05:09:48;;;;;;;4.30;1.38;;;9.10;99.90;;;;;;5086596;28;20106;-39
2022/10/19 05:12:13;;;;;;;4.57;1.13;;;9.10;99.90;;;;;;5073472;28;20029;-40
2022/10/19 05:14:39;;;;;;;2.83;1.10;;;9.10;99.90;;;;;;5084847;28;20016;-40
2022/10/19 05:17:04;;;;;;;2.72;1.20;;;9.10;99.90;;;;;;5077132;28;20059;-34
2022/10/19 05:19:30;;;;;;;1.55;1.00;;;9.10;99.90;;;;;;5082680;28;20084;-37
2022/10/19 05:21:55;;;;;;;2.45;0.95;;;9.00;99.90;;;;;;5079497;28;20044;-37
2022/10/19 05:24:21;;;;;;;1.98;1.20;;;9.00;99.90;;;;;;5079886;28;20028;-37
2022/10/19 05:26:46;;;;;;;1.80;1.17;;;9.00;99.90;;;;;;5082242;28;20026;-39
2022/10/19 05:29:12;;;;;;;3.13;1.20;;;9.00;99.90;;;;;;5075881;28;20791;-39
2022/10/19 05:31:38;;;;;;;1.77;1.20;;;8.90;99.90;;;;;;5084033;28;20050;-39
2022/10/19 05:34:04;;;;;;;3.47;1.20;;;8.90;99.90;;;;;;5074678;28;20046;-41
2022/10/19 05:36:35;;;;;;;2.25;1.10;;;9.00;99.90;;;;;;5083322;28;20032;-37
2022/10/19 05:39:27;;;;;;;3.80;1.42;;;8.90;99.90;;;;;;5074929;28;20036;-38
2022/10/19 05:41:52;;;;;;;2.67;1.40;;;8.90;99.90;;;;;;5072309;28;20093;-39
2022/10/19 05:44:20;;;;;;;3.40;1.52;;;8.90;99.90;;;;;;5071433;28;20839;-39
2022/10/19 05:46:47;;;;;;;2.35;1.35;;;8.80;99.90;;;;;;5083171;28;20105;-37
2022/10/19 05:49:14;;;;;;;2.33;1.30;;;8.80;99.90;;;;;;5073555;28;20047;-39
2022/10/19 05:51:43;;;;;;;2.10;1.30;;;8.80;99.90;;;;;;5065906;28;20697;-38
2022/10/19 05:54:10;;;;;;;2.47;1.40;;;8.80;99.90;;;;;;5073561;28;20024;-39
2022/10/19 05:56:35;;;;;;;4.03;2.20;;;8.80;99.90;;;;;;5083864;28;20028;-38
2022/10/19 05:59:04;;;;;;;1.90;1.35;;;8.80;99.90;;;;;;5072434;28;20033;-41
2022/10/19 06:01:30;;;;;;;2.50;1.65;;;8.80;99.90;;;;;;5083205;28;20037;-34
2022/10/19 06:03:57;;;;;;;4.60;1.70;;;8.70;99.90;;;;;;5071765;28;20034;-37
2022/10/19 06:06:24;;;;;;;4.40;1.80;;;8.70;99.90;;;;;;5082481;28;20024;-39
2022/10/19 06:08:50;;;;;;;3.30;1.83;;;8.70;99.90;;;;;;5075192;28;20112;-39
2022/10/19 06:11:28;;;;;;;4.95;2.22;;;8.70;99.90;;;;;;5079562;28;20032;-39
2022/10/19 06:13:55;;;;;;;3.28;1.60;;;8.70;99.90;;;;;;5075541;28;20709;-37
2022/10/19 06:16:23;;;;;;;4.57;2.15;;;8.70;99.90;;;;;;5079478;28;20110;-40
2022/10/19 06:18:49;;;;;;;3.63;1.63;;;8.70;99.90;;;;;;5077257;28;20024;-38
2022/10/19 06:21:16;;;;;;;2.22;1.30;;;8.70;99.90;;;;;;5077259;28;20028;-39
2022/10/19 06:23:42;;;;;;;3.22;1.33;;;8.70;99.90;;;;;;5080158;28;20099;-40
2022/10/19 06:26:16;;;;;;;4.10;1.77;;;8.70;99.90;;;;;;5074029;28;20729;-41
2022/10/19 06:28:42;;;;;;;4.22;1.30;;;8.70;99.90;;;;;;5081742;28;20027;-40
2022/10/19 06:31:09;;;;;;;4.30;1.58;;;8.80;99.90;;;;;;5073307;28;20055;-39
2022/10/19 06:33:35;;;;;;;4.15;1.70;;;8.80;99.90;;;;;;5081824;28;20449;-39
2022/10/19 06:36:09;;;;;;;3.35;1.48;;;8.80;99.90;;;;;;5072746;28;20039;-39
2022/10/19 06:38:35;;;;;;;4.13;1.42;;;8.80;99.90;;;;;;5083171;28;20074;-40
2022/10/19 06:41:01;;;;;;;3.53;1.52;;;8.80;99.90;;;;;;5072933;28;20107;-38
2022/10/19 06:43:27;;;;;;;4.45;2.35;;;8.80;99.90;;;;;;5078807;28;20495;-38
2022/10/19 06:45:52;;;;;;;5.28;1.60;;;8.90;99.90;;;;;;5076851;28;20809;-39
2022/10/19 06:48:18;;;;;;;2.88;1.67;;;8.80;99.90;;;;;;5064533;28;20615;-39
2022/10/19 06:50:44;;;;;;;4.78;1.98;;;8.90;99.90;;;;;;5068360;28;20102;-38
2022/10/19 06:53:10;;;;;;;2.38;1.23;;;8.90;99.90;;;;;;5063615;28;20073;-38
2022/10/19 06:55:36;;;;;;;3.20;1.33;;;9.00;99.90;;;;;;5070031;28;20024;-40
2022/10/19 06:58:01;;;;;;;4.50;1.20;;;9.00;99.90;;;;;;5066185;28;20021;-40
2022/10/19 07:00:28;;;;;;;5.15;1.20;;;9.00;99.90;;;;;;5071231;28;20550;-39
2022/10/19 07:02:57;;;;;;;4.22;1.05;;;9.10;99.90;;;;;;5068564;28;20039;-40
2022/10/19 07:05:23;;;;;;;3.63;1.00;;;9.20;99.90;;;;;;5069612;28;20104;-36
2022/10/19 07:07:48;;;;;;;2.60;0.90;;;9.20;99.90;;;;;;5070259;28;20029;-40
2022/10/19 07:10:14;;;;;;;1.92;0.90;;;9.30;99.90;;;;;;5066738;28;20039;-40
2022/10/19 07:12:39;;;;;;;3.90;1.10;;;9.30;99.90;;;;;;5072520;28;20020;-39
2022/10/19 07:15:05;;;;;;;2.00;1.08;;;9.30;99.90;;;;;;5065151;28;20030;-39
2022/10/19 07:17:34;;;;;;;4.15;1.13;;;9.40;99.90;;;;;;5074883;28;20025;-38
2022/10/19 07:19:59;;;;;;;3.13;1.27;;;9.40;99.90;;;;;;5065043;28;20020;-37
2022/10/19 07:22:25;;;;;;;2.55;0.98;;;9.50;99.90;;;;;;5073439;28;20029;-39
2022/10/19 07:24:51;;;;;;;5.20;0.90;;;9.50;99.90;;;;;;5063787;28;20024;-37
2022/10/19 07:27:16;;;;;;;4.15;0.80;;;9.60;99.90;;;;;;5070720;28;20028;-42
2022/10/19 07:29:42;;;;;;;2.85;1.00;;;9.70;99.90;;;;;;5082988;28;20131;-43
2022/10/19 07:32:08;;;;;;;5.70;1.08;;;9.70;99.90;;;;;;5070406;28;20642;-37
2022/10/19 07:34:33;;;;;;;4.60;1.08;;;9.80;99.90;;;;;;5065839;28;20593;-39
2022/10/19 07:36:59;;;;;;;2.83;1.33;;;9.80;99.90;;;;;;5071630;28;20029;-40
2022/10/19 07:39:26;;;;;;;5.80;1.42;;;9.90;99.90;;;;;;5080845;28;20085;-38
2022/10/19 07:41:51;;;;;;;3.63;1.65;;;9.90;99.90;;;;;;5074774;28;20035;-39
2022/10/19 07:44:17;;;;;;;5.85;1.67;;;10.00;99.90;;;;;;5079365;28;20020;-38
2022/10/19 07:46:43;;;;;;;3.85;1.40;;;10.10;99.90;;;;;;5077566;28;20550;-39
2022/10/19 07:49:17;;;;;;;4.10;1.88;;;10.10;99.90;;;;;;5075685;28;20065;-38
2022/10/19 07:51:43;;;;;;;3.88;1.50;;;10.30;99.90;;;;;;5077709;28;20538;-38
2022/10/19 07:54:09;;;;;;;6.78;1.60;;;10.30;99.90;;;;;;5074827;28;20030;-39
2022/10/19 07:56:35;;;;;;;3.85;1.50;;;10.40;99.90;;;;;;5080131;28;20047;-38
2022/10/19 07:59:03;;;;;;;2.90;1.23;;;10.40;99.90;;;;;;5072596;28;20789;-40
2022/10/19 08:01:31;;;;;;;4.65;1.52;;;10.40;99.90;;;;;;5080910;28;20150;-39
2022/10/19 08:03:59;;;;;;;3.72;1.20;;;10.50;99.90;;;;;;5070897;28;20032;-39
2022/10/19 08:06:25;;;;;;;4.03;1.60;;;10.50;99.90;;;;;;5080602;28;20135;-39
2022/10/19 08:08:52;;;;;;;3.88;1.55;;;10.60;99.90;;;;;;5071132;28;20757;-39
2022/10/19 08:11:21;;;;;;;3.08;1.58;;;10.60;99.90;;;;;;5081914;28;20044;-39
2022/10/19 08:13:47;;;;;;;5.43;1.92;;;10.70;99.90;;;;;;5070876;28;20435;-39
2022/10/19 08:16:36;;;;;;;4.88;2.40;;;10.70;99.90;;;;;;5082963;28;20756;-40
2022/10/19 08:19:05;;;;;;;4.60;1.92;;;10.70;99.90;;;;;;5070074;28;20161;-40
2022/10/19 08:21:35;;;;;;;3.38;2.00;;;10.80;99.90;;;;;;5083285;28;20038;-41
2022/10/19 08:24:00;;;;;;;4.45;1.80;;;10.80;99.90;;;;;;5070696;28;20028;-40
2022/10/19 08:26:34;;;;;;;8.52;2.10;;;10.80;99.90;;;;;;5081997;28;20035;-41
2022/10/19 08:29:12;;;;;;;4.15;1.75;;;10.80;99.90;;;;;;5070351;28;20020;-38
2022/10/19 08:31:38;;;;;;;3.63;1.70;;;10.90;99.90;;;;;;5082244;28;20794;-40
2022/10/19 08:34:04;;;;;;;3.40;1.73;;;10.90;99.90;;;;;;5070149;28;20028;-39
2022/10/19 08:36:31;;;;;;;3.75;1.83;;;10.90;99.90;;;;;;5062021;28;20035;-39
2022/10/19 08:38:57;;;;;;;4.40;2.00;;;11.00;99.90;;;;;;5071033;28;20073;-40
2022/10/19 08:42:02;;;;;;;2.92;1.58;;;11.00;99.90;;;;;;5064804;28;20029;-38
2022/10/19 08:44:27;;;;;;;4.25;1.70;;;11.10;99.90;;;;;;5074569;28;20089;-39
2022/10/19 08:47:17;;;;;;;3.63;1.90;;;11.10;99.90;;;;;;5062602;28;20463;-38
2022/10/19 08:49:44;;;;;;;3.38;1.85;;;11.10;99.90;;;;;;5075712;28;20081;-37
2022/10/19 08:52:34;;;;;;;3.13;1.50;;;11.20;99.90;;;;;;5062912;28;20045;-40
2022/10/19 08:55:07;;;;;;;5.30;1.92;;;11.20;99.90;;;;;;5075297;28;20912;-39
2022/10/19 08:57:46;;;;;;;3.08;1.88;;;11.20;99.90;;;;;;5063269;28;20884;-39
2022/10/19 09:00:23;;;;;;;6.07;2.10;;;11.20;99.90;;;;;;5074006;28;20491;-40
2022/10/19 09:03:12;;;;;;;2.90;1.60;;;11.30;99.90;;;;;;5062775;28;20054;-39
2022/10/19 09:05:58;;;;;;;3.75;1.85;;;11.30;99.90;;;;;;5070769;28;20467;-39
2022/10/19 09:08:25;;;;;;;3.30;1.90;;;11.30;99.90;;;;;;5084018;28;20047;-40
2022/10/19 09:10:53;;;;;;;4.43;1.70;;;11.40;99.90;;;;;;5075099;28;20360;-40
2022/10/19 09:13:40;;;;;;;5.18;1.88;;;11.50;99.90;;;;;;5086551;28;20078;-40
2022/10/19 09:16:12;;;;;;;4.07;1.33;;;11.50;99.90;;;;;;5078024;28;20059;-39
2022/10/19 09:18:38;;;;;;;3.65;1.45;;;11.60;99.90;;;;;;5066509;28;20048;-38
2022/10/19 09:21:12;;;;;;;2.58;1.50;;;11.70;99.90;;;;;;5078532;28;20075;-39
2022/10/19 09:23:57;;;;;;;4.00;1.60;;;11.70;99.90;;;;;;5066251;28;20027;-39
2022/10/19 09:26:31;;;;;;;2.92;1.17;;;11.80;99.90;;;;;;5074036;28;20077;-38
2022/10/19 09:29:05;;;;;;;1.92;1.15;;;11.80;99.90;;;;;;5085851;28;20027;-40
2022/10/19 09:31:37;;;;;;;1.63;1.05;;;11.90;99.90;;;;;;5073925;28;20051;-40
2022/10/19 09:34:12;;;;;;;5.13;1.20;;;12.00;99.90;;;;;;5085876;28;20028;-40
2022/10/19 09:36:41;;;;;;;2.17;1.17;;;12.10;99.90;;;;;;5073379;28;20032;-40
2022/10/19 09:39:12;;;;;;;4.40;1.23;;;12.10;99.90;;;;;;5086334;28;20075;-41
2022/10/19 09:41:45;;;;;;;5.63;2.10;;;12.10;99.90;;;;;;5072940;28;20471;-40
2022/10/19 09:44:12;;;;;;;4.10;1.25;;;12.20;99.90;;;;;;5085746;28;20127;-38
2022/10/19 09:46:53;;;;;;;5.78;1.73;;;12.20;99.90;;;;;;5073339;28;20020;-39
2022/10/19 09:49:37;;;;;;;2.88;1.20;;;12.30;99.90;;;;;;5084674;28;20595;-40
2022/10/19 09:52:02;;;;;;;3.78;1.30;;;12.30;99.90;;;;;;5073290;28;20039;-38
2022/10/19 09:54:35;;;;;;;4.10;1.40;;;12.30;99.90;;;;;;5085379;28;20032;-39
2022/10/19 09:57:02;;;;;;;2.20;1.00;;;12.40;99.90;;;;;;5072125;28;20025;-37
2022/10/19 09:59:32;;;;;;;1.75;1.35;;;12.40;99.90;;;;;;5085353;28;20027;-39
2022/10/19 10:02:29;;;;;;;2.03;1.30;;;12.50;99.90;;;;;;5073420;28;20024;-38
2022/10/19 10:05:04;;;;;;;4.90;1.65;;;12.50;99.90;;;;;;5065315;28;20060;-39
2022/10/19 10:07:35;;;;;;;3.25;1.30;;;12.50;99.90;;;;;;5077654;28;20028;-38
2022/10/19 10:10:01;;;;;;;1.92;1.20;;;12.60;99.90;;;;;;5064784;28;20037;-38
2022/10/19 10:12:27;;;;;;;4.18;1.40;;;12.60;99.90;;;;;;5076987;28;20031;-39
2022/10/19 10:14:55;;;;;;;3.55;1.30;;;12.60;99.90;;;;;;5065682;28;20043;-39
2022/10/19 10:17:25;;;;;;;4.43;1.33;;;12.60;99.90;;;;;;5074863;28;20024;-35
2022/10/19 10:20:04;;;;;;;4.60;2.00;;;12.60;99.90;;;;;;5064290;28;20027;-39
2022/10/19 10:22:35;;;;;;;3.95;1.63;;;12.70;99.90;;;;;;5075859;28;20024;-39
2022/10/19 10:25:09;;;;;;;3.95;1.70;;;12.70;99.90;;;;;;5065295;28;20021;-40
2022/10/19 10:27:38;;;;;;;3.97;1.50;;;12.80;99.90;;;;;;5075270;28;20150;-39
2022/10/19 10:30:09;;;;;;;4.85;1.45;;;12.80;99.90;;;;;;5066973;28;20024;-40
2022/10/19 10:32:48;;;;;;;2.25;1.02;;;12.90;99.90;;;;;;5072250;28;20036;-39
2022/10/19 10:35:47;;;;;;;2.10;0.95;;;12.80;99.90;;;;;;5065592;28;20064;-40
2022/10/19 10:38:18;;;;;;;3.15;1.48;;;12.90;99.90;;;;;;5072142;28;20075;-40
2022/10/19 10:40:53;;;;;;;3.10;1.30;;;12.90;99.90;;;;;;5065244;28;20070;-40
2022/10/19 10:43:24;;;;;;;5.10;1.35;;;12.90;99.90;;;;;;5075839;28;20046;-39
2022/10/19 10:45:52;;;;;;;2.70;1.42;;;13.00;99.90;;;;;;5063968;28;20020;-40
2022/10/19 10:48:30;;;;;;;3.13;1.65;;;13.00;99.90;;;;;;5074714;28;20050;-39
2022/10/19 10:50:58;;;;;;;3.63;1.75;;;13.00;99.90;;;;;;5073350;28;20027;-40
2022/10/19 10:53:33;;;;;;;4.75;1.73;;;13.00;99.90;;;;;;5073361;28;20147;-39
2022/10/19 10:55:58;;;;;;;3.92;1.98;;;13.10;99.90;;;;;;5083213;28;20117;-38
2022/10/19 10:58:42;;;;;;;4.97;1.80;;;13.10;99.90;;;;;;5075219;28;20031;-38
2022/10/19 11:01:20;;;;;;;3.55;2.00;;;13.20;99.90;;;;;;5082049;28;20071;-40
2022/10/19 11:03:55;;;;;;;6.43;2.17;;;13.20;99.90;;;;;;5074146;28;20063;-35
2022/10/19 11:06:24;;;;;;;5.57;1.92;;;13.30;99.90;;;;;;5081693;28;20031;-41
2022/10/19 11:09:10;;;;;;;3.88;1.50;;;13.30;99.90;;;;;;5073455;28;20040;-38
2022/10/19 11:11:43;;;;;;;2.33;1.13;;;13.40;99.90;;;;;;5083452;28;20031;-40
2022/10/19 11:14:27;;;;;;;3.28;1.42;;;13.50;99.90;;;;;;5072523;28;20024;-40
2022/10/19 11:17:01;;;;;;;2.63;1.70;;;13.50;99.90;;;;;;5064277;28;20036;-41
2022/10/19 11:19:43;;;;;;;3.15;1.30;;;13.50;99.90;;;;;;5075193;28;20024;-40
2022/10/19 11:22:08;;;;;;;2.10;1.30;;;13.50;99.90;;;;;;5063682;28;20052;-39
2022/10/19 11:25:11;;;;;;;3.80;1.27;;;13.50;99.90;;;;;;5074649;28;20113;-40
2022/10/19 11:28:12;;;;;;;2.25;1.10;;;13.60;99.90;;;;;;5063184;28;20480;-40
2022/10/19 11:30:50;;;;;;;5.47;1.65;;;13.60;99.90;;;;;;5077554;28;20057;-41
2022/10/19 11:33:37;;;;;;;6.05;1.25;;;13.60;99.90;;;;;;5064362;28;20036;-40
2022/10/19 11:36:30;;;;;;;4.82;1.50;;;13.60;99.90;;;;;;5075195;28;20035;-40
2022/10/19 11:39:29;;;;;;;5.75;1.10;;;13.70;99.90;;;;;;5053059;28;20150;-40
2022/10/19 11:42:05;;;;;;;5.72;1.92;;;13.70;99.90;;;;;;5070248;28;20052;-40
2022/10/19 11:44:53;;;;;;;3.53;1.25;;;13.70;99.90;;;;;;5068360;28;20124;-39
2022/10/19 11:48:06;;;;;;;2.72;1.00;;;13.70;99.90;;;;;;5067607;28;20032;-40
2022/10/19 11:51:01;;;;;;;3.58;1.15;;;13.70;99.90;;;;;;5024608;28;20040;-37
2022/10/19 11:53:51;;;;;;;2.88;1.20;;;13.70;99.90;;;;;;5063795;28;20430;-41
2022/10/19 11:56:50;;;;;;;3.85;0.98;;;13.70;99.90;;;;;;5070076;28;20031;-40
2022/10/19 11:59:47;;;;;;;1.50;0.80;;;13.80;99.90;;;;;;5081322;28;20040;-38
2022/10/19 12:02:37;;;;;;;5.90;1.10;;;13.80;99.90;;;;;;5072787;28;20016;-39
2022/10/19 12:05:18;;;;;;;3.00;1.10;;;13.80;99.90;;;;;;5079848;28;20058;-37
2022/10/19 12:07:55;;;;;;;2.33;1.20;;;13.80;99.90;;;;;;5076753;28;20115;-40
2022/10/19 12:10:43;;;;;;;2.83;1.00;;;13.80;99.90;;;;;;5076487;28;20509;-39
2022/10/19 12:13:13;;;;;;;2.47;1.02;;;13.90;99.90;;;;;;5077963;28;20031;-39
2022/10/19 12:15:47;;;;;;;3.00;1.30;;;13.90;99.90;;;;;;5078190;28;20016;-39
2022/10/19 12:18:36;;;;;;;4.65;1.40;;;14.00;99.90;;;;;;5076890;28;20028;-40
2022/10/19 12:21:08;;;;;;;3.65;1.20;;;14.00;99.90;;;;;;5075796;28;20601;-40
2022/10/19 12:23:40;;;;;;;4.10;1.13;;;14.00;99.90;;;;;;5078774;28;20135;-40
2022/10/19 12:26:14;;;;;;;3.50;1.53;;;14.00;99.90;;;;;;5076858;28;20814;-38
2022/10/19 12:28:45;;;;;;;3.15;1.00;;;14.10;99.90;;;;;;5078443;28;20028;-40
2022/10/19 12:31:11;;;;;;;5.10;1.00;;;14.10;99.90;;;;;;5075804;28;20151;-41
2022/10/19 12:33:48;;;;;;;6.28;1.25;;;14.10;99.90;;;;;;5077037;28;20043;-37
2022/10/19 12:36:23;;;;;;;1.45;1.00;;;14.10;99.90;;;;;;5077981;28;20024;-40
2022/10/19 12:39:21;;;;;;;3.00;1.02;;;14.20;99.90;;;;;;5076366;28;20085;-40
2022/10/19 12:41:52;;;;;;;5.38;1.33;;;14.20;99.90;;;;;;5075643;28;20027;-40
2022/10/19 12:44:42;;;;;;;2.47;1.00;;;14.20;99.90;;;;;;5082975;28;20032;-40
2022/10/19 12:47:16;;;;;;;4.30;1.65;;;14.30;99.90;;;;;;5076773;28;20037;-39
2022/10/19 12:49:44;;;;;;;3.20;1.50;;;14.30;99.90;;;;;;5085242;28;20024;-40
2022/10/19 12:52:11;;;;;;;2.13;1.27;;;14.20;99.90;;;;;;5076453;28;20041;-40
2022/10/19 12:54:39;;;;;;;2.65;1.48;;;14.30;99.90;;;;;;5082552;28;20031;-40
2022/10/19 12:57:24;;;;;;;3.00;1.50;;;14.30;99.90;;;;;;5081003;28;20097;-40
2022/10/19 12:59:59;;;;;;;5.25;1.58;;;14.30;99.90;;;;;;5082231;28;20032;-40
2022/10/19 13:02:32;;;;;;;4.43;1.40;;;14.30;99.90;;;;;;5078757;28;20056;-40
2022/10/19 13:04:58;;;;;;;2.22;1.33;;;14.30;99.90;;;;;;5082890;28;20123;-39
2022/10/19 13:07:26;;;;;;;3.67;1.30;;;14.30;99.90;;;;;;5079279;28;20082;-37
2022/10/19 13:10:00;;;;;;;2.78;1.00;;;14.40;99.90;;;;;;5080039;28;20052;-40
2022/10/19 13:12:27;;;;;;;2.88;1.48;;;14.40;99.90;;;;;;5081536;28;20441;-39
2022/10/19 13:15:03;;;;;;;3.75;1.13;;;14.40;99.90;;;;;;5078437;28;20020;-39